Time;durP1;ratioP1;P1;durP2;ratioP2;P2;SDS_P1;SDS_P2;PMS_P1;PMS_P2;Temp;Humidity;BMP_temperature;BMP_pressure;BME280_temperature;BME280_humidity;BME280_pressure;Samples;Min_cycle;Max_cycle;Signal;HPM_P1;HPM_P2
2021/05/04 00:01:38;;;;;;;11.07;1.80;;;;;;;12.21;44.34;100157.50;5134241;27;20030;-39
2021/05/04 00:04:03;;;;;;;9.40;1.63;;;;;;;12.10;45.83;100148.47;5134323;27;20035;-40
2021/05/04 00:06:28;;;;;;;16.88;1.70;;;;;;;12.06;45.29;100133.78;5134609;27;20023;-40
2021/05/04 00:08:54;;;;;;;13.60;2.00;;;;;;;12.00;48.13;100142.13;5133974;27;20459;-40
2021/05/04 00:11:19;;;;;;;15.80;1.60;;;;;;;11.91;47.75;100177.00;5135068;27;20098;-39
2021/05/04 00:13:45;;;;;;;7.13;1.40;;;;;;;11.82;47.22;100144.16;5134551;27;20503;-39
2021/05/04 00:16:10;;;;;;;16.77;1.90;;;;;;;11.77;47.11;100143.25;5134424;27;20035;-39
2021/05/04 00:18:35;;;;;;;13.90;1.50;;;;;;;11.69;49.62;100135.56;5133744;28;20293;-39
2021/05/04 00:21:01;;;;;;;8.43;1.40;;;;;;;11.66;49.26;100119.81;5134507;27;20023;-39
2021/05/04 00:23:26;;;;;;;10.90;1.70;;;;;;;11.59;50.19;100099.19;5134199;27;20106;-39
2021/05/04 00:25:51;;;;;;;11.87;1.87;;;;;;;11.54;48.91;100120.78;5134238;27;20280;-39
2021/05/04 00:28:17;;;;;;;7.13;1.50;;;;;;;11.47;50.61;100117.50;5133804;27;20072;-39
2021/05/04 00:30:42;;;;;;;5.97;1.40;;;;;;;11.35;51.44;100124.91;5133912;27;20482;-39
2021/05/04 00:33:07;;;;;;;7.50;1.30;;;;;;;11.30;50.69;100122.16;5134072;27;20051;-39
2021/05/04 00:35:33;;;;;;;6.00;1.30;;;;;;;11.22;51.99;100119.88;5132957;28;20023;-39
2021/05/04 00:37:58;;;;;;;7.33;1.43;;;;;;;11.10;54.91;100117.31;5133966;28;20039;-39
2021/05/04 00:40:23;;;;;;;4.40;1.40;;;;;;;10.89;55.32;100110.84;5134338;27;20015;-39
2021/05/04 00:42:49;;;;;;;8.80;1.53;;;;;;;10.78;56.26;100117.16;5133645;27;20043;-39
2021/05/04 00:45:14;;;;;;;6.93;1.77;;;;;;;10.67;57.46;100108.09;5134273;27;20053;-39
2021/05/04 00:47:40;;;;;;;5.90;2.00;;;;;;;10.55;58.97;100110.91;5133595;27;20106;-39
2021/05/04 00:50:06;;;;;;;5.30;1.63;;;;;;;10.48;59.31;100110.25;5134255;27;20035;-39
2021/05/04 00:52:32;;;;;;;4.43;1.10;;;;;;;10.40;60.52;100107.19;5133980;27;20391;-39
2021/05/04 00:54:58;;;;;;;6.57;1.65;;;;;;;10.31;61.31;100104.88;5134445;27;20031;-39
2021/05/04 00:57:23;;;;;;;10.00;1.63;;;;;;;10.30;61.16;100094.34;5134344;27;20034;-39
2021/05/04 00:59:50;;;;;;;4.35;1.40;;;;;;;10.21;62.37;100087.69;5134085;27;20044;-39
2021/05/04 01:02:16;;;;;;;2.90;1.55;;;;;;;10.16;62.34;100090.31;5133961;27;20023;-39
2021/05/04 01:04:43;;;;;;;3.03;1.70;;;;;;;10.10;63.17;100086.69;5134140;27;20036;-39
2021/05/04 01:07:08;;;;;;;2.92;1.65;;;;;;;10.02;64.63;100085.22;5134611;27;20143;-39
2021/05/04 01:09:33;;;;;;;4.70;2.07;;;;;;;9.89;65.75;100073.91;5134177;27;20523;-39
2021/05/04 01:11:59;;;;;;;3.70;1.60;;;;;;;9.79;66.11;100063.75;5136457;27;20031;-39
2021/05/04 01:14:24;;;;;;;4.47;1.63;;;;;;;9.74;65.94;100060.97;5138052;27;20131;-39
2021/05/04 01:16:50;;;;;;;6.17;1.90;;;;;;;9.64;67.84;100069.72;5138008;27;20368;-39
2021/05/04 01:19:19;;;;;;;6.30;1.85;;;;;;;9.47;68.56;100045.41;5137431;27;20027;-39
2021/05/04 01:21:45;;;;;;;7.43;1.77;;;;;;;9.44;69.35;100035.09;5137910;27;20034;-39
2021/05/04 01:24:11;;;;;;;3.75;1.88;;;;;;;9.38;69.58;100030.69;5137231;27;20113;-39
2021/05/04 01:26:40;;;;;;;3.65;1.70;;;;;;;9.30;70.42;100033.78;5137214;27;20031;-39
2021/05/04 01:29:05;;;;;;;2.90;1.80;;;;;;;9.32;70.58;100041.59;5136865;27;20031;-39
2021/05/04 01:31:31;;;;;;;3.70;1.90;;;;;;;9.23;70.44;100028.53;5137720;27;20131;-39
2021/05/04 01:33:56;;;;;;;3.60;2.03;;;;;;;9.15;72.17;100023.50;5137169;27;20130;-39
2021/05/04 01:36:22;;;;;;;2.92;2.15;;;;;;;9.12;72.52;100020.47;5136545;27;20035;-39
2021/05/04 01:38:47;;;;;;;3.33;2.13;;;;;;;9.09;72.59;100020.97;5136895;27;20042;-39
2021/05/04 01:41:13;;;;;;;2.73;1.80;;;;;;;9.00;73.07;100013.25;5137714;27;20027;-39
2021/05/04 01:43:38;;;;;;;4.33;2.10;;;;;;;8.96;73.53;100011.28;5136568;27;20463;-39
2021/05/04 01:46:03;;;;;;;3.30;2.50;;;;;;;8.90;74.25;100004.97;5136646;27;20025;-39
2021/05/04 01:48:29;;;;;;;2.30;1.80;;;;;;;8.81;75.33;99995.63;5137104;27;20034;-39
2021/05/04 01:50:54;;;;;;;3.93;1.97;;;;;;;8.78;75.16;100001.50;5137106;27;20023;-39
2021/05/04 01:53:19;;;;;;;4.87;2.00;;;;;;;8.75;75.79;99992.03;5136786;27;20023;-39
2021/05/04 01:55:44;;;;;;;2.90;2.00;;;;;;;8.72;75.68;100002.44;5136980;27;20063;-39
2021/05/04 01:58:10;;;;;;;4.03;2.23;;;;;;;8.68;76.30;99999.41;5136623;27;20064;-39
2021/05/04 02:00:35;;;;;;;6.40;2.47;;;;;;;8.58;77.50;99985.72;5135904;27;20067;-39
2021/05/04 02:03:01;;;;;;;3.90;2.27;;;;;;;8.62;76.91;99986.91;5136573;27;20015;-39
2021/05/04 02:05:26;;;;;;;5.53;2.00;;;;;;;8.60;77.37;99974.75;5137324;27;20039;-39
2021/05/04 02:07:51;;;;;;;5.00;2.50;;;;;;;8.58;77.31;99968.75;5136682;27;20019;-39
2021/05/04 02:10:17;;;;;;;2.73;2.13;;;;;;;8.51;77.83;99955.41;5136690;27;20034;-39
2021/05/04 02:12:42;;;;;;;6.20;2.40;;;;;;;8.41;78.31;99953.34;5136391;27;20027;-39
2021/05/04 02:15:09;;;;;;;5.45;2.38;;;;;;;8.41;78.75;99953.34;5137069;27;20026;-39
2021/05/04 02:17:34;;;;;;;;;;;;;;;8.47;77.61;99954.25;5136553;27;20055;-39
2021/05/04 02:19:59;;;;;;;5.10;2.20;;;;;;;8.42;79.63;99932.59;5136478;27;19912;-39
2021/05/04 02:22:25;;;;;;;4.60;2.50;;;;;;;8.29;80.58;99922.06;5135628;27;20307;-39
2021/05/04 02:24:50;;;;;;;2.83;2.03;;;;;;;8.37;78.76;99914.47;5135864;27;20020;-39
2021/05/04 02:27:16;;;;;;;4.67;2.23;;;;;;;8.33;78.52;99902.50;5135723;27;20434;-39
2021/05/04 02:29:41;;;;;;;3.67;2.00;;;;;;;8.36;78.98;99896.66;5136299;27;20064;-39
2021/05/04 02:32:06;;;;;;;5.03;2.27;;;;;;;8.37;79.00;99898.28;5135982;27;20035;-39
2021/05/04 02:34:32;;;;;;;2.87;2.03;;;;;;;8.36;79.40;99896.66;5135938;27;20030;-39
2021/05/04 02:36:58;;;;;;;3.85;1.65;;;;;;;8.34;78.58;99885.25;5135560;27;20027;-39
2021/05/04 02:39:23;;;;;;;4.77;2.00;;;;;;;8.33;79.08;99872.03;5136333;27;20023;-39
2021/05/04 02:41:48;;;;;;;3.13;1.90;;;;;;;8.40;78.34;99872.78;5135483;27;20031;-39
2021/05/04 02:44:14;;;;;;;2.13;1.90;;;;;;;8.33;78.68;99854.00;5135467;27;20106;-39
2021/05/04 02:46:39;;;;;;;3.33;2.20;;;;;;;8.34;78.25;99860.22;5135976;27;20051;-39
2021/05/04 02:49:04;;;;;;;4.23;2.20;;;;;;;8.37;77.82;99835.53;5135885;27;20058;-39
2021/05/04 02:51:30;;;;;;;2.43;1.97;;;;;;;8.30;78.53;99853.69;5136375;27;20038;-39
2021/05/04 02:53:55;;;;;;;3.33;1.80;;;;;;;8.29;78.28;99831.28;5136301;27;20492;-39
2021/05/04 02:56:21;;;;;;;3.78;2.10;;;;;;;8.33;78.47;99839.72;5135774;27;20099;-39
2021/05/04 02:58:46;;;;;;;2.35;1.67;;;;;;;8.38;78.00;99845.22;5135472;27;20019;-39
2021/05/04 03:01:12;;;;;;;3.20;1.80;;;;;;;8.38;78.27;99837.97;5136204;27;20110;-39
2021/05/04 03:03:39;;;;;;;3.13;2.07;;;;;;;8.36;78.11;99837.41;5135433;27;20023;-39
2021/05/04 03:06:05;;;;;;;2.72;1.80;;;;;;;8.41;76.76;99826.72;5136148;27;20051;-39
2021/05/04 03:08:30;;;;;;;5.40;1.70;;;;;;;8.44;76.66;99818.16;5135832;27;20065;-39
2021/05/04 03:10:56;;;;;;;3.67;1.80;;;;;;;8.46;76.87;99797.19;5135852;27;20019;-39
2021/05/04 03:13:27;;;;;;;6.97;2.33;;;;;;;8.45;77.01;99792.03;5134965;27;20047;-39
2021/05/04 03:15:53;;;;;;;3.28;1.65;;;;;;;8.45;77.10;99792.84;5135814;27;20099;-39
2021/05/04 03:18:18;;;;;;;4.05;1.70;;;;;;;8.47;76.16;99795.28;5135290;27;20409;-39
2021/05/04 03:20:44;;;;;;;2.97;1.73;;;;;;;8.47;76.37;99792.59;5135390;27;20027;-39
2021/05/04 03:23:10;;;;;;;;;;;;;;;8.54;76.06;99787.03;5135507;27;20052;-39
2021/05/04 03:25:35;;;;;;;2.83;2.22;;;;;;;8.47;77.63;99771.03;5135671;27;19911;-39
2021/05/04 03:28:01;;;;;;;2.10;1.57;;;;;;;8.45;77.27;99768.59;5134872;27;20034;-39
2021/05/04 03:30:27;;;;;;;3.30;1.30;;;;;;;8.40;77.34;99759.63;5135086;27;20026;-39
2021/05/04 03:32:53;;;;;;;3.28;1.65;;;;;;;8.40;77.38;99771.22;5134179;27;20103;-39
2021/05/04 03:35:19;;;;;;;3.15;1.70;;;;;;;8.36;77.93;99750.34;5134861;27;20055;-39
2021/05/04 03:37:45;;;;;;;4.68;1.80;;;;;;;8.41;77.59;99747.78;5134728;27;20105;-39
2021/05/04 03:40:11;;;;;;;4.38;1.63;;;;;;;8.40;77.68;99748.84;5135042;27;20348;-39
2021/05/04 03:42:36;;;;;;;5.75;1.50;;;;;;;8.41;78.12;99739.69;5134869;27;20084;-39
2021/05/04 03:45:02;;;;;;;4.17;1.60;;;;;;;8.39;77.43;99714.88;5134582;27;20386;-40
2021/05/04 03:47:27;;;;;;;3.78;1.42;;;;;;;8.46;77.55;99719.03;5134740;27;20538;-39
2021/05/04 03:49:52;;;;;;;2.50;1.33;;;;;;;8.47;76.91;99717.97;5135441;27;20027;-39
2021/05/04 03:52:18;;;;;;;2.97;1.37;;;;;;;8.46;76.97;99715.53;5134217;27;20429;-39
2021/05/04 03:54:44;;;;;;;4.63;1.63;;;;;;;8.48;76.96;99703.44;5135028;27;20027;-39
2021/05/04 03:57:09;;;;;;;;;;;;;;;8.57;76.07;99703.84;5135446;27;20106;-39
2021/05/04 03:59:35;;;;;;;2.63;1.50;;;;;;;8.57;76.33;99727.28;5134468;27;19983;-39
2021/05/04 04:02:00;;;;;;;2.70;1.57;;;;;;;8.55;77.35;99713.25;5134020;27;20034;-39
2021/05/04 04:04:25;;;;;;;5.13;1.93;;;;;;;8.58;77.66;99710.06;5134944;27;20478;-39
2021/05/04 04:06:51;;;;;;;4.53;1.50;;;;;;;8.51;78.10;99708.34;5134654;27;20027;-40
2021/05/04 04:09:16;;;;;;;3.27;1.40;;;;;;;8.51;77.28;99688.69;5134061;27;20429;-40
2021/05/04 04:11:41;;;;;;;3.20;1.60;;;;;;;8.51;77.43;99692.19;5134678;27;20467;-39
2021/05/04 04:14:07;;;;;;;2.23;1.30;;;;;;;8.49;77.74;99680.84;5134272;27;20066;-39
2021/05/04 04:16:32;;;;;;;1.97;1.50;;;;;;;8.46;77.44;99684.03;5134584;27;20035;-39
2021/05/04 04:18:57;;;;;;;3.63;1.60;;;;;;;8.48;77.13;99678.38;5132492;28;20494;-40
2021/05/04 04:21:23;;;;;;;3.37;1.40;;;;;;;8.50;77.15;99690.56;5134992;27;20068;-39
2021/05/04 04:23:48;;;;;;;4.07;1.77;;;;;;;8.47;77.81;99676.75;5134183;27;20452;-39
2021/05/04 04:26:13;;;;;;;1.77;1.30;;;;;;;8.52;77.44;99683.03;5132473;28;20034;-39
2021/05/04 04:28:39;;;;;;;1.67;1.30;;;;;;;8.60;76.61;99678.31;5134163;27;20027;-39
2021/05/04 04:31:04;;;;;;;2.47;1.43;;;;;;;8.58;76.06;99675.84;5133873;27;20027;-39
2021/05/04 04:33:29;;;;;;;2.80;1.30;;;;;;;8.65;75.39;99660.31;5133862;27;20020;-40
2021/05/04 04:35:55;;;;;;;2.57;1.37;;;;;;;8.65;75.96;99665.72;5134062;27;20027;-39
2021/05/04 04:38:20;;;;;;;3.10;1.67;;;;;;;8.69;75.26;99684.91;5134032;27;20057;-39
2021/05/04 04:40:46;;;;;;;2.27;1.20;;;;;;;8.71;75.08;99661.22;5134697;27;20507;-39
2021/05/04 04:43:12;;;;;;;5.38;1.38;;;;;;;8.77;75.52;99647.56;5134023;27;20667;-39
2021/05/04 04:45:38;;;;;;;5.45;1.40;;;;;;;8.77;75.14;99652.13;5135174;27;20027;-39
2021/05/04 04:48:04;;;;;;;3.45;1.10;;;;;;;8.78;74.86;99642.97;5137703;27;20470;-39
2021/05/04 04:50:29;;;;;;;2.35;1.30;;;;;;;8.82;74.69;99646.81;5137779;27;20119;-39
2021/05/04 04:52:55;;;;;;;5.60;1.70;;;;;;;8.83;75.22;99642.22;5138212;27;20027;-39
2021/05/04 04:55:20;;;;;;;3.97;1.30;;;;;;;8.84;74.74;99654.66;5137868;27;20612;-39
2021/05/04 04:57:46;;;;;;;4.47;1.13;;;;;;;8.89;75.15;99660.94;5137514;27;20031;-39
2021/05/04 05:00:12;;;;;;;2.00;1.30;;;;;;;8.95;74.33;99651.03;5137420;27;20030;-39
2021/05/04 05:02:37;;;;;;;4.85;1.33;;;;;;;8.94;74.82;99669.09;5137604;27;20019;-39
2021/05/04 05:05:03;;;;;;;3.60;1.42;;;;;;;8.96;75.02;99669.66;5137667;27;20161;-39
2021/05/04 05:07:29;;;;;;;3.30;1.27;;;;;;;9.00;75.04;99657.31;5137257;27;20034;-39
2021/05/04 05:09:54;;;;;;;3.07;1.20;;;;;;;9.00;75.25;99676.19;5137672;27;20030;-39
2021/05/04 05:12:19;;;;;;;3.03;1.80;;;;;;;8.98;76.23;99656.75;5137289;27;20073;-39
2021/05/04 05:14:45;;;;;;;4.97;2.27;;;;;;;8.97;77.81;99662.38;5137540;27;20074;-39
2021/05/04 05:17:11;;;;;;;2.70;1.10;;;;;;;8.95;77.63;99670.72;5137400;27;20027;-39
2021/05/04 05:19:36;;;;;;;;;;;;;;;8.99;76.89;99652.19;5138678;27;20106;-39
2021/05/04 05:22:03;;;;;;;4.45;1.50;;;;;;;8.89;78.28;99647.47;5137324;27;20415;-39
2021/05/04 05:24:28;;;;;;;;;;;;;;;8.94;77.84;99652.94;5138338;27;20413;-39
2021/05/04 05:26:54;;;;;;;1.35;1.02;;;;;;;8.80;79.04;99648.94;5137495;27;19964;-39
2021/05/04 05:29:19;;;;;;;2.38;1.20;;;;;;;8.80;79.39;99643.56;5136975;27;20050;-39
2021/05/04 05:31:45;;;;;;;2.38;1.00;;;;;;;8.82;78.49;99644.13;5137601;27;20429;-39
2021/05/04 05:34:10;;;;;;;2.03;1.10;;;;;;;8.83;78.11;99640.34;5137288;27;20478;-39
2021/05/04 05:36:35;;;;;;;1.97;1.13;;;;;;;8.87;78.37;99637.97;5137516;27;20023;-40
2021/05/04 05:39:01;;;;;;;2.97;1.10;;;;;;;8.86;77.97;99639.88;5136924;27;20019;-39
2021/05/04 05:41:27;;;;;;;1.40;0.90;;;;;;;8.87;78.44;99622.63;5137155;27;20030;-39
2021/05/04 05:43:52;;;;;;;1.85;1.00;;;;;;;8.87;78.77;99616.41;5137039;27;20371;-39
2021/05/04 05:46:18;;;;;;;1.47;0.80;;;;;;;8.87;78.01;99611.03;5137376;27;20057;-39
2021/05/04 05:48:44;;;;;;;2.45;0.88;;;;;;;8.87;79.25;99613.72;5136998;27;20079;-40
2021/05/04 05:51:10;;;;;;;2.30;1.08;;;;;;;8.89;78.50;99617.81;5137716;27;20329;-39
2021/05/04 05:53:36;;;;;;;1.65;1.00;;;;;;;8.92;78.68;99611.91;5136599;27;20056;-39
2021/05/04 05:56:02;;;;;;;1.70;0.90;;;;;;;8.93;78.90;99608.16;5136710;27;20482;-39
2021/05/04 05:58:27;;;;;;;2.85;1.20;;;;;;;8.94;79.32;99615.19;5136509;27;20031;-40
2021/05/04 06:00:55;;;;;;;3.27;1.23;;;;;;;8.91;78.61;99621.06;5136810;27;20032;-39
2021/05/04 06:03:21;;;;;;;4.45;1.23;;;;;;;8.95;78.31;99603.31;5137223;27;20391;-39
2021/05/04 06:05:48;;;;;;;4.80;1.30;;;;;;;9.01;78.17;99612.28;5136670;27;20033;-40
2021/05/04 06:08:13;;;;;;;6.30;1.42;;;;;;;9.02;77.93;99606.63;5136276;27;20049;-39
2021/05/04 06:10:39;;;;;;;2.80;1.30;;;;;;;9.06;77.06;99588.06;5136014;27;20467;-40
2021/05/04 06:13:06;;;;;;;6.10;1.50;;;;;;;9.13;77.68;99613.00;5136572;27;20027;-40
2021/05/04 06:15:31;;;;;;;3.10;1.42;;;;;;;9.14;76.54;99598.44;5136651;27;20085;-39
2021/05/04 06:17:57;;;;;;;3.10;1.30;;;;;;;9.23;76.87;99606.91;5136369;27;20114;-39
2021/05/04 06:20:23;;;;;;;3.65;1.10;;;;;;;9.27;75.90;99613.41;5136969;27;20027;-39
2021/05/04 06:22:49;;;;;;;4.30;1.55;;;;;;;9.27;76.39;99602.59;5135654;27;20383;-39
2021/05/04 06:25:14;;;;;;;3.28;1.30;;;;;;;9.26;76.54;99600.97;5136305;27;20098;-39
2021/05/04 06:27:40;;;;;;;4.93;1.48;;;;;;;9.25;76.41;99602.06;5136218;27;20027;-39
2021/05/04 06:30:07;;;;;;;4.30;1.42;;;;;;;9.24;76.75;99600.44;5136257;27;20080;-39
2021/05/04 06:32:32;;;;;;;5.80;1.60;;;;;;;9.25;77.39;99610.16;5135857;27;20084;-39
2021/05/04 06:34:58;;;;;;;4.72;1.85;;;;;;;9.24;77.55;99609.34;5136385;27;20027;-39
2021/05/04 06:37:23;;;;;;;5.25;1.40;;;;;;;9.25;78.41;99605.56;5135858;27;20516;-39
2021/05/04 06:39:49;;;;;;;5.47;1.37;;;;;;;9.20;78.18;99608.22;5136322;27;20045;-40
2021/05/04 06:42:14;;;;;;;2.35;0.95;;;;;;;9.16;78.12;99611.66;5135569;27;20035;-40
2021/05/04 06:44:39;;;;;;;4.07;1.40;;;;;;;9.10;78.49;99634.25;5135446;27;20114;-39
2021/05/04 06:47:05;;;;;;;4.33;1.40;;;;;;;9.12;78.77;99610.53;5136158;27;20110;-39
2021/05/04 06:49:31;;;;;;;5.30;1.90;;;;;;;9.15;78.50;99612.72;5136085;27;20138;-40
2021/05/04 06:51:56;;;;;;;4.68;1.23;;;;;;;9.16;77.79;99611.66;5135606;27;20027;-39
2021/05/04 06:54:22;;;;;;;4.30;1.35;;;;;;;9.19;78.08;99608.47;5136131;27;20034;-39
2021/05/04 06:56:47;;;;;;;6.73;1.97;;;;;;;9.21;77.35;99619.81;5135735;27;20035;-39
2021/05/04 06:59:12;;;;;;;4.83;1.50;;;;;;;9.24;77.79;99619.31;5135398;27;20031;-39
2021/05/04 07:01:39;;;;;;;4.70;1.30;;;;;;;9.26;76.90;99615.28;5135283;27;20115;-40
2021/05/04 07:04:06;;;;;;;5.07;1.48;;;;;;;9.27;75.81;99610.69;5135261;27;20082;-39
2021/05/04 07:06:32;;;;;;;4.68;1.10;;;;;;;9.25;77.66;99602.06;5135075;27;20031;-39
2021/05/04 07:08:57;;;;;;;3.55;1.40;;;;;;;9.28;76.63;99594.28;5134659;27;20087;-39
2021/05/04 07:11:22;;;;;;;3.37;1.50;;;;;;;9.28;76.71;99612.34;5135996;27;20447;-39
2021/05/04 07:13:48;;;;;;;3.73;1.10;;;;;;;9.31;76.07;99608.31;5134803;27;20027;-39
2021/05/04 07:16:13;;;;;;;5.23;1.30;;;;;;;9.25;76.28;99610.16;5135859;27;20043;-39
2021/05/04 07:18:38;;;;;;;5.87;1.60;;;;;;;9.23;76.22;99591.53;5135043;27;20031;-39
2021/05/04 07:21:08;;;;;;;3.40;1.47;;;;;;;9.20;76.71;99581.22;5134923;27;20113;-39
2021/05/04 07:23:34;;;;;;;4.80;1.30;;;;;;;9.19;77.25;99589.59;5134390;27;20503;-40
2021/05/04 07:26:00;;;;;;;5.07;1.60;;;;;;;9.23;77.24;99601.50;5134669;27;20471;-39
2021/05/04 07:28:27;;;;;;;7.32;1.50;;;;;;;9.24;77.00;99587.75;5134325;27;20042;-39
2021/05/04 07:30:54;;;;;;;5.97;1.95;;;;;;;9.26;77.09;99591.00;5134354;27;20118;-39
2021/05/04 07:33:19;;;;;;;;;;;;;;;9.39;77.08;99595.22;5134983;27;20086;-39
2021/05/04 07:35:44;;;;;;;4.63;1.80;;;;;;;9.39;76.29;99606.00;5134599;27;20433;-39
2021/05/04 07:38:09;;;;;;;6.27;2.07;;;;;;;9.43;76.46;99599.03;5134685;27;20031;-39
2021/05/04 07:40:35;;;;;;;8.43;2.23;;;;;;;9.43;76.75;99600.91;5134792;27;20031;-39
2021/05/04 07:43:00;;;;;;;6.70;2.20;;;;;;;9.44;76.30;99614.16;5134567;27;20348;-39
2021/05/04 07:45:26;;;;;;;6.93;2.10;;;;;;;9.45;75.90;99602.28;5134841;27;20483;-39
2021/05/04 07:47:57;;;;;;;8.57;2.45;;;;;;;9.47;77.03;99599.34;5134773;27;20481;-39
2021/05/04 07:50:23;;;;;;;7.53;2.35;;;;;;;9.50;76.55;99604.22;5135243;27;20448;-39
2021/05/04 07:52:48;;;;;;;;;;;;;;;9.55;75.52;99588.06;5134894;27;20072;-39
2021/05/04 07:55:13;;;;;;;8.67;2.50;;;;;;;9.61;75.27;99597.03;5134732;27;19911;-39
2021/05/04 07:57:39;;;;;;;11.57;2.77;;;;;;;9.72;75.67;99594.19;5134490;27;20060;-39
2021/05/04 08:00:05;;;;;;;7.17;2.47;;;;;;;9.82;75.93;99596.19;5134441;27;20437;-39
2021/05/04 08:02:30;;;;;;;9.25;2.80;;;;;;;9.96;75.62;99594.69;5134528;27;20090;-39
2021/05/04 08:04:55;;;;;;;9.53;2.20;;;;;;;10.11;73.82;99579.69;5134061;27;20027;-44
2021/05/04 08:07:21;;;;;;;8.97;2.63;;;;;;;10.15;73.77;99586.16;5134032;27;20076;-39
2021/05/04 08:09:46;;;;;;;6.83;2.10;;;;;;;10.07;73.45;99590.97;5134800;27;20102;-39
2021/05/04 08:12:11;;;;;;;8.03;2.67;;;;;;;10.01;74.34;99594.72;5134172;27;20072;-39
2021/05/04 08:14:37;;;;;;;9.30;2.40;;;;;;;9.99;73.55;99590.63;5134292;27;20027;-39
2021/05/04 08:17:03;;;;;;;8.63;2.23;;;;;;;9.94;74.92;99593.28;5134656;27;20405;-40
2021/05/04 08:19:28;;;;;;;9.02;2.15;;;;;;;9.88;74.90;99587.03;5135152;27;20024;-40
2021/05/04 08:21:53;;;;;;;9.80;2.43;;;;;;;9.85;75.00;99576.75;5138318;27;20023;-40
2021/05/04 08:24:19;;;;;;;8.23;2.23;;;;;;;9.83;75.55;99578.91;5138933;27;20264;-39
2021/05/04 08:26:45;;;;;;;9.23;1.65;;;;;;;9.77;76.39;99618.53;5138517;27;20027;-40
2021/05/04 08:29:11;;;;;;;4.63;1.60;;;;;;;9.43;74.71;99612.53;5139107;27;20027;-40
2021/05/04 08:31:37;;;;;;;4.30;1.40;;;;;;;9.22;78.17;99616.03;5138657;27;20459;-40
2021/05/04 08:34:02;;;;;;;3.03;0.93;;;;;;;8.98;77.20;99620.91;5138506;27;20028;-40
2021/05/04 08:36:30;;;;;;;1.30;0.68;;;;;;;8.82;76.59;99617.16;5138743;27;20462;-40
2021/05/04 08:38:55;;;;;;;3.25;1.35;;;;;;;8.70;77.93;99619.97;5138187;27;20037;-40
2021/05/04 08:41:21;;;;;;;2.23;0.80;;;;;;;8.59;77.94;99618.22;5138470;27;20110;-40
2021/05/04 08:43:48;;;;;;;3.92;0.80;;;;;;;8.58;78.89;99616.56;5138256;27;20023;-40
2021/05/04 08:46:14;;;;;;;3.90;1.08;;;;;;;8.64;78.83;99622.84;5138381;27;20023;-40
2021/05/04 08:48:44;;;;;;;;;;;;;;;8.75;80.44;99617.34;5138387;27;20028;-40
2021/05/04 08:51:12;;;;;;;6.88;1.73;;;;;;;8.86;81.06;99612.91;5138303;27;20266;-40
2021/05/04 08:53:38;;;;;;;6.88;2.33;;;;;;;9.01;80.40;99588.81;5136962;27;20352;-40
2021/05/04 08:56:04;;;;;;;7.78;1.98;;;;;;;9.16;81.55;99590.09;5138751;27;20035;-40
2021/05/04 08:58:32;;;;;;;;;;;;;;;9.31;80.22;99582.16;5138798;27;20459;-40
2021/05/04 09:00:58;;;;;;;6.82;2.22;;;;;;;9.41;79.51;99579.56;5138019;27;19940;-40
2021/05/04 09:03:37;;;;;;;9.40;2.72;;;;;;;9.50;78.89;99590.72;5137429;27;20034;-40
2021/05/04 09:06:06;;;;;;;10.80;2.63;;;;;;;9.53;77.91;99582.94;5137947;27;20027;-40
2021/05/04 09:08:43;;;;;;;9.15;2.10;;;;;;;9.51;77.28;99592.34;5137866;27;20019;-40
2021/05/04 09:13:58;;;;;;;6.15;1.90;;;;;;;9.61;75.00;99587.06;5137818;27;20054;-40
2021/05/04 09:16:32;;;;;;;6.40;2.03;;;;;;;9.64;73.93;99585.75;5138424;27;20095;-40
2021/05/04 09:19:16;;;;;;;5.75;1.80;;;;;;;9.95;74.22;99586.81;5137885;27;20043;-40
2021/05/04 09:21:42;;;;;;;4.75;1.55;;;;;;;10.31;74.03;99585.25;5136993;27;20051;-39
2021/05/04 09:24:20;;;;;;;6.20;2.03;;;;;;;10.41;73.20;99579.91;5136963;27;20479;-39
2021/05/04 09:26:46;;;;;;;9.00;2.13;;;;;;;10.44;73.85;99587.50;5138064;27;20075;-39
2021/05/04 09:29:12;;;;;;;7.70;2.30;;;;;;;10.49;72.12;99570.47;5137218;27;20019;-39
2021/05/04 09:31:38;;;;;;;8.18;2.53;;;;;;;10.58;73.81;99585.94;5136482;27;20054;-39
2021/05/04 09:34:12;;;;;;;7.60;2.30;;;;;;;10.51;72.99;99581.88;5137142;27;20027;-39
2021/05/04 09:36:50;;;;;;;8.02;2.17;;;;;;;10.52;71.65;99589.72;5137628;27;20031;-39
2021/05/04 09:39:30;;;;;;;8.90;2.83;;;;;;;10.58;71.96;99590.53;5137275;27;20059;-39
2021/05/04 09:41:57;;;;;;;8.93;2.42;;;;;;;10.52;72.15;99589.72;5137164;27;20485;-39
2021/05/04 09:44:43;;;;;;;9.70;2.17;;;;;;;10.42;70.98;99618.56;5136873;27;20031;-39
2021/05/04 09:47:09;;;;;;;11.32;2.67;;;;;;;10.19;70.98;99593.50;5136841;27;20106;-40
2021/05/04 09:49:37;;;;;;;9.90;2.78;;;;;;;10.12;71.65;99616.41;5136721;27;20416;-39
2021/05/04 09:54:50;;;;;;;10.15;2.30;;;;;;;10.45;73.05;99626.97;5137235;27;20038;-39
2021/05/04 09:57:33;;;;;;;11.10;2.70;;;;;;;10.64;70.79;99621.13;5136586;27;20031;-39
2021/05/04 09:59:59;;;;;;;8.88;2.78;;;;;;;10.61;70.90;99638.69;5137089;27;20019;-39
2021/05/04 10:02:25;;;;;;;9.15;2.38;;;;;;;10.62;70.52;99645.72;5136939;27;20363;-39
2021/05/04 10:04:53;;;;;;;7.82;2.70;;;;;;;10.60;69.06;99657.88;5136784;27;20027;-39
2021/05/04 10:07:20;;;;;;;10.05;2.30;;;;;;;10.53;70.06;99655.38;5136380;27;20344;-39
2021/05/04 10:09:47;;;;;;;11.02;3.15;;;;;;;10.40;70.15;99656.66;5136809;27;20035;-39
2021/05/04 10:12:14;;;;;;;8.57;2.00;;;;;;;10.32;69.05;99667.94;5136249;27;20087;-39
2021/05/04 10:14:44;;;;;;;6.90;2.05;;;;;;;10.21;68.15;99677.00;5136289;27;20023;-39
2021/05/04 10:17:09;;;;;;;6.72;2.08;;;;;;;10.26;67.88;99683.28;5135887;27;20043;-39
2021/05/04 10:19:37;;;;;;;5.18;1.52;;;;;;;10.62;63.72;99682.75;5135719;27;20038;-39
2021/05/04 10:22:05;;;;;;;8.43;1.88;;;;;;;10.74;62.70;99681.50;5136057;27;20020;-39
2021/05/04 10:24:32;;;;;;;5.18;1.40;;;;;;;10.92;61.41;99684.84;5136959;27;20365;-39
2021/05/04 10:27:01;;;;;;;5.65;1.55;;;;;;;11.32;60.63;99674.25;5136351;27;20031;-39
2021/05/04 10:29:27;;;;;;;5.60;1.63;;;;;;;11.46;58.88;99677.25;5135697;27;20057;-39
2021/05/04 10:31:53;;;;;;;3.38;1.05;;;;;;;11.33;59.20;99697.53;5136148;27;20034;-39
2021/05/04 10:34:34;;;;;;;7.05;1.45;;;;;;;11.12;62.17;99732.84;5135565;27;20028;-39
2021/05/04 10:37:23;;;;;;;3.28;1.02;;;;;;;10.58;64.42;99726.53;5135802;27;20027;-39
2021/05/04 10:39:49;;;;;;;4.88;1.45;;;;;;;10.17;68.31;99748.81;5135372;27;20037;-39
2021/05/04 10:42:29;;;;;;;4.70;1.10;;;;;;;10.04;70.55;99755.44;5135313;27;20437;-39
2021/05/04 10:44:57;;;;;;;6.22;1.63;;;;;;;9.89;70.45;99761.47;5135718;27;20187;-39
2021/05/04 10:47:44;;;;;;;6.03;1.17;;;;;;;9.89;70.55;99766.06;5136204;27;20374;-39
2021/05/04 10:50:23;;;;;;;6.10;1.77;;;;;;;9.75;71.57;99795.31;5135531;27;20019;-39
2021/05/04 10:52:49;;;;;;;4.72;1.35;;;;;;;9.56;71.22;99784.00;5135545;27;20030;-39
2021/05/04 10:55:16;;;;;;;3.83;1.20;;;;;;;9.38;72.10;99777.06;5136064;27;20027;-39
2021/05/04 10:58:11;;;;;;;5.32;1.10;;;;;;;9.34;72.71;99797.50;5135469;27;20023;-39
2021/05/04 11:00:52;;;;;;;2.33;1.10;;;;;;;9.17;73.66;99780.50;5121919;27;20398;-39
2021/05/04 11:03:40;;;;;;;3.60;1.20;;;;;;;9.04;73.54;99800.56;5136366;27;20110;-39
2021/05/04 11:06:13;;;;;;;4.38;1.73;;;;;;;8.94;74.19;99797.72;5125353;27;20070;-39
2021/05/04 11:08:42;;;;;;;3.60;1.23;;;;;;;9.03;74.08;99797.06;5135456;27;20021;-39
2021/05/04 11:11:22;;;;;;;5.10;1.63;;;;;;;9.37;74.56;99809.66;5135736;27;20371;-39
2021/05/04 11:13:58;;;;;;;5.00;1.60;;;;;;;9.52;71.76;99813.41;5135377;27;20023;-39
2021/05/04 11:16:29;;;;;;;4.43;1.60;;;;;;;9.54;72.88;99803.16;5135393;27;20047;-39
2021/05/04 11:19:04;;;;;;;6.53;1.95;;;;;;;9.53;71.89;99809.63;5134952;27;20455;-39
2021/05/04 11:21:43;;;;;;;4.90;1.90;;;;;;;9.64;73.24;99807.06;5135507;27;20031;-39
2021/05/04 11:24:11;;;;;;;6.70;1.85;;;;;;;9.63;71.82;99805.44;5135030;27;20037;-39
2021/05/04 11:26:57;;;;;;;7.10;1.98;;;;;;;9.57;70.56;99817.25;5134844;27;20456;-39
2021/05/04 11:29:32;;;;;;;4.63;1.77;;;;;;;9.51;71.05;99819.84;5135058;27;20047;-39
2021/05/04 11:32:29;;;;;;;4.72;1.75;;;;;;;9.47;70.65;99828.72;5135393;27;20417;-39
2021/05/04 11:34:59;;;;;;;5.50;1.83;;;;;;;9.41;72.05;99833.19;5134895;27;20106;-39
2021/05/04 11:37:28;;;;;;;4.53;1.38;;;;;;;9.33;70.02;99820.16;5135182;27;20498;-39
2021/05/04 11:39:56;;;;;;;3.17;1.17;;;;;;;9.31;68.09;99841.16;5134738;27;20031;-39
2021/05/04 11:42:53;;;;;;;3.28;1.50;;;;;;;9.32;69.76;99837.41;5134595;27;20054;-39
2021/05/04 11:45:25;;;;;;;2.50;1.13;;;;;;;9.29;68.56;99844.09;5134428;27;20046;-39